createdAt,value
2023-05-10T00:07:05.077Z,0
2023-05-10T00:22:01.236Z,0
2023-05-10T00:36:57.494Z,0.01
2023-05-10T00:51:53.633Z,0
2023-05-10T01:06:49.781Z,0
2023-05-10T01:21:45.951Z,0
2023-05-10T01:36:41.956Z,0
2023-05-10T01:51:37.827Z,0
2023-05-10T02:06:34.363Z,0.01
2023-05-10T02:21:30.722Z,0
2023-05-10T02:36:27.166Z,0
2023-05-10T02:51:23.439Z,0
2023-05-10T03:06:19.545Z,0.01
2023-05-10T03:21:16.310Z,0
2023-05-10T03:36:12.887Z,0
2023-05-10T03:51:09.694Z,0
2023-05-10T04:06:05.872Z,0.01
2023-05-10T04:21:02.432Z,0.02
2023-05-10T04:35:59.088Z,0.02
2023-05-10T04:50:55.148Z,0.06
2023-05-10T05:05:51.314Z,0.05
2023-05-10T05:20:48.066Z,0.06
2023-05-10T05:35:44.249Z,0.05
2023-05-10T06:20:33.978Z,0.1
2023-05-10T06:35:30.413Z,0.13
2023-05-10T06:50:26.970Z,0.12
2023-05-10T07:20:18.701Z,0.1
2023-05-10T07:35:15.220Z,0.06
2023-05-10T08:20:03.485Z,0.02
2023-05-10T09:19:48.051Z,0.1
2023-05-10T09:34:43.841Z,0.11
2023-05-10T09:49:40.141Z,0.17
2023-05-10T10:19:33.492Z,0.2
2023-05-10T10:34:30.322Z,0.26
2023-05-10T10:49:27.028Z,0.13
2023-05-10T11:04:23.238Z,0.22
2023-05-10T11:19:19.419Z,0.21
2023-05-10T12:04:08.815Z,0.2
2023-05-10T12:19:05.402Z,0.23
2023-05-10T12:34:01.702Z,0.09
2023-05-10T13:18:49.131Z,0.2
2023-05-10T13:33:45.683Z,0.11
2023-05-10T13:48:41.802Z,0.1
2023-05-10T14:03:37.600Z,0.03
2023-05-10T14:18:33.491Z,0.15
2023-05-10T14:33:29.085Z,0.34
2023-05-10T14:48:25.585Z,0.19
2023-05-10T15:03:22.082Z,0.13
2023-05-10T15:18:18.031Z,0.14
2023-05-10T15:33:14.413Z,0.21
2023-05-10T15:48:11.086Z,0.21
2023-05-10T16:03:07.446Z,0.16
2023-05-10T16:18:03.900Z,0.14
2023-05-10T16:33:00.145Z,0.12
2023-05-10T16:47:56.390Z,0.1
2023-05-10T17:02:52.424Z,0.1
2023-05-10T17:17:48.122Z,0.09
2023-05-10T17:32:43.811Z,0.08
2023-05-10T17:47:39.995Z,0.08
2023-05-10T18:32:28.170Z,0.05
2023-05-10T18:47:24.430Z,0.03
2023-05-10T19:02:20.561Z,0.02
2023-05-10T19:17:18.383Z,0.02
2023-05-10T19:32:12.765Z,0.01
2023-05-10T19:47:08.642Z,0.02
2023-05-10T20:02:04.674Z,0
2023-05-10T20:17:00.518Z,0
2023-05-10T20:31:56.331Z,0
2023-05-10T20:46:52.761Z,0
2023-05-10T21:01:49.259Z,0
2023-05-10T21:16:45.556Z,0
2023-05-10T21:31:41.611Z,0
2023-05-10T21:46:37.978Z,0.01
2023-05-10T22:01:34.620Z,0
2023-05-10T22:16:30.859Z,0
2023-05-10T22:31:27.069Z,0
2023-05-10T22:46:23.290Z,0
2023-05-10T23:01:19.379Z,0
2023-05-10T23:16:15.941Z,0
2023-05-10T23:31:11.781Z,0
